map of YRB home
YRB - Airport
Location
City:  Resolute, Nunavut, Canada
Near (Alt.):Qausuittuq
Name:Resolute Bay Airport
ICAO:CYRB
IATA:YRB

Details
Type:Airport (Airfield)
Use:Public/Civil
Latitude:7443'01"N (74.716944)
Longitude:9458'10"W (-94.969443)
Elevation:222 ft (68 m)
Variation:22.66W (WMM2015 magnetic declination)
0.64 annual change
Runways:1
Longest:6504 ft (1982 m)

Time
Time Zone:UTC-6 (DST-5)
Local Time:

Weather
METAR:CYRB 171300Z 35004KT 15SM -SN OVC029 M25/M28 A2947 RMK SC8 SLP991
TAF:CYRB 171138Z 1712/1812 27005KT P6SM -SN OVC050
TEMPO 1712/1724 3SM -SN BR BKN015 OVC040
FM180000 27005KT P6SM -SN BKN030
BECMG 1807/1809 36010KT
RMK NXT FCST BY 171800Z

Related Locations
Nearby:
Farthest:YWKS: 11621 mi / 18702 km
Wilkins Runway (Casey), Upper Peterson Glacier, AQ

Find:

   beyond  
but within

Other Information
Maps:
NOTAMs:
Links:
Sources:

  
flag of Canada
flag of Nunavut
flag of Resolute
  

Airport Diagram

Airport diagram for YRB

Airport diagram PDF

Sectional Chart

Flight Planning
at skyvector.com

Satellite Image

Google Maps Satellite view

 

Copyright © 2004-2017 Karl L. Swartz. All rights reserved.
The Great Circle Mapper name and logo are trademarks of the Great Circle Mapper.
All other trademarks mentioned herein belong to their respective owners.
Please see credits for attibutions and further copyright information.

  Follow gcmap on Facebook Follow gcmap on Twitter Follow gcmap on Google+ GCmap on LinkedIn

hCard Microformat

Geo Microformat